Time;durP1;ratioP1;P1;durP2;ratioP2;P2;SDS_P1;SDS_P2;PMS_P1;PMS_P2;Temp;Humidity;BMP_temperature;BMP_pressure;BME280_temperature;BME280_humidity;BME280_pressure;Samples;Min_cycle;Max_cycle;Signal;HPM_P1;HPM_P2
2024/04/14 00:00:44;;;;;;;7.75;3.65;;;19.40;98.70;;;;;;5438632;26;20351;-72
2024/04/14 00:03:11;;;;;;;10.95;3.55;;;19.40;98.70;;;;;;5442561;26;20076;-71
2024/04/14 00:05:37;;;;;;;11.70;3.65;;;19.50;98.70;;;;;;5435012;26;19994;-71
2024/04/14 00:08:03;;;;;;;9.40;3.92;;;19.50;98.70;;;;;;5443902;26;20054;-73
2024/04/14 00:10:29;;;;;;;8.98;3.60;;;19.50;98.70;;;;;;5441473;26;20391;-71
2024/04/14 00:12:55;;;;;;;6.35;3.55;;;19.50;98.70;;;;;;5441896;26;19998;-70
2024/04/14 00:15:20;;;;;;;7.78;3.67;;;19.50;98.70;;;;;;5435205;26;20010;-70
2024/04/14 00:17:46;;;;;;;8.98;3.75;;;19.50;98.70;;;;;;5438330;26;19999;-72
2024/04/14 00:20:12;;;;;;;11.07;3.53;;;19.50;98.70;;;;;;5441962;26;19999;-71
2024/04/14 00:22:40;;;;;;;8.77;4.40;;;19.40;98.70;;;;;;5439195;26;20011;-72
2024/04/14 00:25:06;;;;;;;9.98;3.60;;;19.40;98.60;;;;;;5435398;26;19998;-70
2024/04/14 00:27:32;;;;;;;7.40;3.38;;;19.40;98.30;;;;;;5436049;26;19999;-71
2024/04/14 00:29:57;;;;;;;8.32;3.17;;;19.30;97.80;;;;;;5426888;26;20079;-71
2024/04/14 00:32:23;;;;;;;4.70;3.10;;;19.20;96.80;;;;;;5437737;26;20026;-70
2024/04/14 00:34:52;;;;;;;6.78;2.20;;;19.20;96.90;;;;;;5435977;26;20043;-72
2024/04/14 00:37:18;;;;;;;4.60;2.30;;;19.10;95.50;;;;;;5428744;26;20003;-72
2024/04/14 00:39:43;;;;;;;4.75;2.10;;;19.00;95.70;;;;;;5433835;26;20014;-74
2024/04/14 00:42:09;;;;;;;6.93;1.88;;;18.90;95.50;;;;;;5442771;26;20010;-72
2024/04/14 00:44:35;;;;;;;12.20;2.50;;;18.90;95.40;;;;;;5431283;26;20303;-71
2024/04/14 00:47:02;;;;;;;5.20;1.80;;;18.80;95.60;;;;;;5431439;26;20022;-70
2024/04/14 00:49:28;;;;;;;5.15;2.50;;;18.80;95.50;;;;;;5437970;26;20054;-73
2024/04/14 00:51:54;;;;;;;4.57;2.20;;;18.70;95.60;;;;;;5430735;26;20008;-72
2024/04/14 00:54:20;;;;;;;9.65;2.60;;;18.60;95.70;;;;;;5429801;26;19995;-71
2024/04/14 00:56:47;;;;;;;4.65;2.47;;;18.60;96.00;;;;;;5434466;26;20002;-70
2024/04/14 00:59:13;;;;;;;5.18;2.40;;;18.50;96.20;;;;;;5435527;26;19995;-70
2024/04/14 01:01:39;;;;;;;12.02;2.72;;;18.40;96.40;;;;;;5435655;26;19999;-71
2024/04/14 01:04:07;;;;;;;5.47;2.42;;;18.40;96.40;;;;;;5437695;26;20083;-70
2024/04/14 01:06:33;;;;;;;5.18;2.28;;;18.40;96.40;;;;;;5436450;26;20528;-71
2024/04/14 01:08:59;;;;;;;7.28;2.70;;;18.30;96.40;;;;;;5435350;26;20083;-72
2024/04/14 01:11:25;;;;;;;4.80;2.30;;;18.20;96.50;;;;;;5433491;26;20010;-71
2024/04/14 01:13:50;;;;;;;6.95;2.35;;;18.20;96.40;;;;;;5435018;26;19999;-72
2024/04/14 01:16:16;;;;;;;5.93;2.30;;;18.10;96.30;;;;;;5431347;26;20021;-71
2024/04/14 01:18:42;;;;;;;7.32;2.95;;;18.10;96.40;;;;;;5439308;26;20140;-72
2024/04/14 01:21:08;;;;;;;7.57;1.98;;;18.00;96.00;;;;;;5435370;26;20043;-73
2024/04/14 01:23:33;;;;;;;5.05;1.48;;;17.90;95.90;;;;;;5437169;26;20006;-72
2024/04/14 01:25:59;;;;;;;5.70;1.48;;;17.80;95.70;;;;;;5423528;26;19999;-72
2024/04/14 01:28:24;;;;;;;3.33;1.42;;;17.80;95.50;;;;;;5430618;26;20014;-70
2024/04/14 01:30:50;;;;;;;4.95;1.65;;;17.70;95.50;;;;;;5431360;26;20733;-71
2024/04/14 01:33:15;;;;;;;11.32;2.13;;;17.70;95.50;;;;;;5430683;26;20747;-75
2024/04/14 01:35:41;;;;;;;4.63;2.53;;;17.60;95.40;;;;;;5405780;26;20064;-70
2024/04/14 01:38:07;;;;;;;3.80;1.60;;;17.60;95.40;;;;;;5435434;26;20006;-70
2024/04/14 01:40:33;;;;;;;3.15;1.60;;;17.50;95.40;;;;;;5430582;26;20010;-70
2024/04/14 01:42:58;;;;;;;4.60;1.58;;;17.50;95.50;;;;;;5432933;26;20064;-71
2024/04/14 01:45:24;;;;;;;4.65;1.50;;;17.50;95.70;;;;;;5432933;26;20452;-72
2024/04/14 01:47:50;;;;;;;7.47;1.70;;;17.50;95.60;;;;;;5434671;26;20022;-69
2024/04/14 01:50:16;;;;;;;5.25;1.55;;;17.40;95.80;;;;;;5427977;26;20467;-74
2024/04/14 01:52:41;;;;;;;3.40;1.30;;;17.40;95.80;;;;;;5436391;26;20456;-70
2024/04/14 01:55:07;;;;;;;8.48;1.55;;;17.30;95.70;;;;;;5434356;26;19995;-71
2024/04/14 01:57:33;;;;;;;5.30;1.15;;;17.20;95.80;;;;;;5468528;26;20003;-70
2024/04/14 01:59:59;;;;;;;5.53;1.60;;;17.20;95.90;;;;;;5432960;26;19999;-72
2024/04/14 02:02:25;;;;;;;3.55;1.38;;;17.10;95.90;;;;;;5419541;26;20000;-72
2024/04/14 02:04:51;;;;;;;3.58;1.30;;;17.10;95.80;;;;;;5428363;26;20535;-71
2024/04/14 02:07:17;;;;;;;5.32;1.55;;;17.00;96.00;;;;;;5437559;26;20449;-70
2024/04/14 02:09:43;;;;;;;6.82;1.45;;;17.10;96.00;;;;;;5440796;26;20021;-71
2024/04/14 02:12:08;;;;;;;2.17;1.33;;;17.00;96.00;;;;;;5429533;26;20393;-73
2024/04/14 02:14:35;;;;;;;3.70;1.30;;;17.00;96.10;;;;;;5431226;26;20459;-69
2024/04/14 02:17:01;;;;;;;9.60;1.60;;;16.90;96.20;;;;;;5425574;26;19996;-70
2024/04/14 02:19:27;;;;;;;3.47;1.63;;;16.80;96.20;;;;;;5435496;26;20017;-71
2024/04/14 02:21:52;;;;;;;5.75;1.25;;;16.70;96.30;;;;;;5434419;26;20040;-75
2024/04/14 02:24:18;;;;;;;7.15;1.98;;;16.70;96.30;;;;;;5432710;26;20007;-71
2024/04/14 02:26:44;;;;;;;8.90;1.58;;;16.60;96.40;;;;;;5439575;26;20075;-72
2024/04/14 02:29:09;;;;;;;9.18;1.92;;;16.60;96.50;;;;;;5433377;26;20492;-69
2024/04/14 02:31:35;;;;;;;6.55;1.60;;;16.60;96.40;;;;;;5436497;26;20791;-72
2024/04/14 02:34:00;;;;;;;4.40;1.40;;;16.60;96.50;;;;;;5437847;26;20003;-71
2024/04/14 02:36:28;;;;;;;3.33;1.52;;;16.60;96.50;;;;;;5433595;26;19995;-69
2024/04/14 02:38:54;;;;;;;3.33;1.33;;;16.60;96.70;;;;;;5430856;26;20003;-72
2024/04/14 02:41:20;;;;;;;7.57;2.05;;;16.50;96.80;;;;;;5445878;26;20000;-70
2024/04/14 02:43:45;;;;;;;6.78;1.77;;;16.40;96.90;;;;;;5444322;26;20014;-71
2024/04/14 02:46:11;;;;;;;6.80;1.67;;;16.40;97.00;;;;;;5443126;26;20042;-71
2024/04/14 02:48:38;;;;;;;9.82;1.60;;;16.40;97.00;;;;;;5436832;26;20003;-71
2024/04/14 02:51:03;;;;;;;6.53;1.58;;;16.40;97.00;;;;;;5435031;26;19991;-71
2024/04/14 02:53:31;;;;;;;8.25;1.75;;;16.40;97.10;;;;;;5441198;26;20474;-71
2024/04/14 02:55:56;;;;;;;3.87;1.57;;;16.40;97.20;;;;;;5440172;26;20510;-70
2024/04/14 02:58:22;;;;;;;6.45;1.67;;;16.40;97.20;;;;;;5430763;26;20217;-71
2024/04/14 03:00:59;;;;;;;5.30;1.50;;;16.30;97.30;;;;;;5427783;26;20348;-70
2024/04/14 03:03:25;;;;;;;5.73;1.60;;;16.40;97.40;;;;;;5432206;26;19999;-74
2024/04/14 03:05:58;;;;;;;4.72;1.63;;;16.40;97.40;;;;;;5435451;26;20266;-74
2024/04/14 03:08:24;;;;;;;5.82;1.50;;;16.30;97.40;;;;;;5433304;26;20006;-73
2024/04/14 03:10:56;;;;;;;4.50;1.73;;;16.30;97.40;;;;;;5432279;26;20008;-71
2024/04/14 03:13:22;;;;;;;6.35;1.90;;;16.30;97.40;;;;;;5433737;26;20000;-70
2024/04/14 03:15:48;;;;;;;2.97;1.33;;;16.20;97.40;;;;;;5445515;26;19999;-72
2024/04/14 03:18:14;;;;;;;5.50;1.55;;;16.30;97.40;;;;;;5443740;26;19995;-72
2024/04/14 03:20:40;;;;;;;8.52;1.95;;;16.30;97.50;;;;;;5439273;26;19990;-69
2024/04/14 03:23:06;;;;;;;3.10;1.77;;;16.20;97.50;;;;;;5443276;26;20009;-70
2024/04/14 03:25:31;;;;;;;4.68;1.70;;;16.20;97.50;;;;;;5439215;26;20325;-70
2024/04/14 03:27:57;;;;;;;11.77;2.05;;;16.20;97.60;;;;;;5434085;26;19995;-75
2024/04/14 03:30:22;;;;;;;11.45;3.15;;;16.20;97.50;;;;;;5442324;26;20040;-70
2024/04/14 03:32:48;;;;;;;9.70;1.92;;;16.20;97.50;;;;;;5434223;26;19996;-70
2024/04/14 03:35:14;;;;;;;9.07;1.95;;;16.20;97.50;;;;;;5435307;26;20018;-70
2024/04/14 03:37:40;;;;;;;10.07;1.60;;;16.10;97.60;;;;;;5438978;26;20584;-70
2024/04/14 03:40:06;;;;;;;7.65;1.50;;;16.10;97.60;;;;;;5440015;26;20070;-71
2024/04/14 03:42:34;;;;;;;3.92;1.20;;;16.10;97.60;;;;;;5436012;26;20018;-73
2024/04/14 03:45:06;;;;;;;7.95;1.80;;;16.10;97.70;;;;;;5433844;26;20000;-71
2024/04/14 03:47:32;;;;;;;9.05;1.92;;;16.00;97.70;;;;;;5427192;26;20031;-72
2024/04/14 03:49:58;;;;;;;8.30;1.77;;;16.10;97.80;;;;;;5430691;26;20007;-71
2024/04/14 03:52:23;;;;;;;15.73;2.47;;;16.00;97.80;;;;;;5437388;26;19998;-73
2024/04/14 03:54:49;;;;;;;8.35;2.13;;;16.00;97.90;;;;;;5438309;26;20007;-72
2024/04/14 03:57:15;;;;;;;9.13;2.00;;;15.90;97.90;;;;;;5436180;26;20430;-71
2024/04/14 03:59:44;;;;;;;9.98;1.83;;;15.90;98.10;;;;;;5431928;26;19995;-71
2024/04/14 04:02:10;;;;;;;12.00;2.38;;;15.90;98.10;;;;;;5437337;26;20014;-71
2024/04/14 04:04:36;;;;;;;5.05;1.88;;;15.80;98.20;;;;;;5423117;26;20422;-70
2024/04/14 04:07:01;;;;;;;3.58;1.85;;;15.80;98.20;;;;;;5435738;26;20042;-71
2024/04/14 04:09:27;;;;;;;4.75;1.85;;;15.90;98.30;;;;;;5441021;26;20011;-73
2024/04/14 04:11:53;;;;;;;9.93;2.17;;;15.90;98.40;;;;;;5433770;26;19998;-71
2024/04/14 04:14:18;;;;;;;7.78;1.85;;;15.80;98.40;;;;;;5424009;26;20104;-72
2024/04/14 04:16:44;;;;;;;7.80;2.00;;;15.80;98.50;;;;;;5428997;26;20007;-71
2024/04/14 04:19:09;;;;;;;6.15;2.00;;;15.80;98.50;;;;;;5425173;26;20014;-72
2024/04/14 04:21:35;;;;;;;7.03;2.10;;;15.80;98.60;;;;;;5428733;26;20006;-69
2024/04/14 04:24:01;;;;;;;11.30;2.70;;;15.80;98.70;;;;;;5426706;26;19991;-71
2024/04/14 04:26:27;;;;;;;8.52;1.90;;;15.70;99.00;;;;;;5437823;26;20050;-68
2024/04/14 04:28:53;;;;;;;6.35;1.75;;;15.60;99.00;;;;;;5419801;26;20039;-68
2024/04/14 04:31:18;;;;;;;3.53;1.33;;;15.60;98.30;;;;;;5427558;26;20045;-67
2024/04/14 04:33:44;;;;;;;5.18;1.23;;;15.60;98.00;;;;;;5434534;26;19995;-68
2024/04/14 04:36:11;;;;;;;7.78;1.48;;;15.50;98.00;;;;;;5438851;26;20014;-67
2024/04/14 04:38:37;;;;;;;5.28;1.52;;;15.40;97.60;;;;;;5434384;26;20003;-67
2024/04/14 04:41:03;;;;;;;6.45;1.27;;;15.40;97.80;;;;;;5439221;26;20824;-68
2024/04/14 04:43:29;;;;;;;2.15;1.08;;;15.30;97.60;;;;;;5440338;26;20041;-67
2024/04/14 04:45:54;;;;;;;4.70;1.50;;;15.20;97.50;;;;;;5426480;26;20011;-68
2024/04/14 04:48:20;;;;;;;4.20;0.90;;;15.20;97.40;;;;;;5434895;26;19995;-68
2024/04/14 04:50:46;;;;;;;6.07;1.02;;;15.20;97.30;;;;;;5441986;26;20507;-67
2024/04/14 04:53:13;;;;;;;6.05;1.40;;;15.20;97.10;;;;;;5429460;26;19995;-68
2024/04/14 04:55:39;;;;;;;6.27;1.10;;;15.00;97.10;;;;;;5429399;26;20009;-68
2024/04/14 04:58:04;;;;;;;2.53;0.77;;;15.00;96.90;;;;;;5443617;26;20035;-68
2024/04/14 05:00:30;;;;;;;3.33;0.98;;;15.00;96.70;;;;;;5432629;26;19991;-68
2024/04/14 05:02:55;;;;;;;5.35;0.80;;;15.00;96.80;;;;;;5437460;26;20010;-68
2024/04/14 05:05:21;;;;;;;2.83;1.20;;;14.90;96.70;;;;;;5433590;26;20324;-68
2024/04/14 05:07:46;;;;;;;4.68;1.15;;;14.80;96.60;;;;;;5426954;26;19995;-67
2024/04/14 05:10:12;;;;;;;10.65;1.15;;;14.80;96.60;;;;;;5438119;26;19995;-68
2024/04/14 05:12:38;;;;;;;6.68;0.90;;;14.80;96.70;;;;;;5427196;26;20038;-68
2024/04/14 05:15:04;;;;;;;8.70;0.93;;;14.60;96.60;;;;;;5425351;26;19999;-68
2024/04/14 05:17:31;;;;;;;4.90;1.23;;;14.60;96.60;;;;;;5437408;26;19991;-69
2024/04/14 05:19:57;;;;;;;6.78;1.40;;;14.60;96.40;;;;;;5435390;26;20362;-68
2024/04/14 05:22:22;;;;;;;8.27;1.48;;;14.60;96.60;;;;;;5431288;26;20003;-67
2024/04/14 05:24:48;;;;;;;3.38;1.00;;;14.60;96.50;;;;;;5433877;26;20071;-68
2024/04/14 05:27:15;;;;;;;4.70;1.15;;;14.60;96.50;;;;;;5431667;26;20638;-68
2024/04/14 05:29:45;;;;;;;7.55;1.45;;;14.60;96.40;;;;;;5425056;26;20394;-68
2024/04/14 05:32:17;;;;;;;7.78;1.20;;;14.70;96.50;;;;;;5430559;26;20410;-67
2024/04/14 05:34:43;;;;;;;2.30;0.77;;;14.60;96.40;;;;;;5432127;26;20006;-67
2024/04/14 05:37:09;;;;;;;6.47;1.00;;;14.60;96.50;;;;;;5428505;26;20345;-68
2024/04/14 05:39:36;;;;;;;2.75;0.80;;;14.60;96.40;;;;;;5439678;26;20008;-68
2024/04/14 05:42:02;;;;;;;6.80;1.00;;;14.60;96.40;;;;;;5435973;26;20003;-68
2024/04/14 05:44:29;;;;;;;2.88;0.73;;;14.50;96.50;;;;;;5433905;26;20007;-67
2024/04/14 05:46:54;;;;;;;8.77;1.33;;;14.40;96.40;;;;;;5422387;26;20011;-68
2024/04/14 05:49:20;;;;;;;6.53;1.67;;;14.40;96.50;;;;;;5428752;26;20344;-67
2024/04/14 05:51:48;;;;;;;4.75;1.50;;;14.30;96.50;;;;;;5431692;26;20026;-67
2024/04/14 05:54:14;;;;;;;6.05;1.23;;;14.30;96.50;;;;;;5436972;26;20012;-68
2024/04/14 05:56:39;;;;;;;7.20;1.17;;;14.30;96.40;;;;;;5433674;26;19999;-68
2024/04/14 05:59:05;;;;;;;7.13;0.82;;;14.20;96.30;;;;;;5432890;26;20720;-68
2024/04/14 06:01:31;;;;;;;6.30;0.93;;;14.20;96.30;;;;;;5438103;26;20093;-68
2024/04/14 06:03:56;;;;;;;8.93;1.30;;;14.30;96.20;;;;;;5428286;26;20106;-68
2024/04/14 06:06:22;;;;;;;4.43;1.08;;;14.30;95.70;;;;;;5440672;26;19991;-68
2024/04/14 06:08:48;;;;;;;2.78;0.90;;;14.40;95.70;;;;;;5434279;26;19994;-68
2024/04/14 06:11:13;;;;;;;5.40;1.13;;;14.40;95.40;;;;;;5421152;26;20008;-68
2024/04/14 06:13:39;;;;;;;6.38;1.10;;;14.30;95.30;;;;;;5411505;26;19990;-67
2024/04/14 06:16:04;;;;;;;7.72;1.40;;;14.30;95.20;;;;;;5431812;26;20006;-68
2024/04/14 06:18:30;;;;;;;5.85;1.05;;;14.30;95.10;;;;;;5439390;26;20031;-67
2024/04/14 06:20:56;;;;;;;9.48;1.65;;;14.30;95.20;;;;;;5428751;26;20339;-68
2024/04/14 06:23:21;;;;;;;6.95;1.40;;;14.30;95.20;;;;;;5418025;26;20006;-68
2024/04/14 06:25:47;;;;;;;8.40;1.00;;;14.30;94.90;;;;;;5435156;26;20067;-67
2024/04/14 06:28:12;;;;;;;3.80;0.98;;;14.20;94.60;;;;;;5442401;26;20537;-65
2024/04/14 06:30:38;;;;;;;7.65;1.00;;;14.20;94.90;;;;;;5438313;26;20006;-66
2024/04/14 06:33:04;;;;;;;5.93;1.08;;;14.20;94.70;;;;;;5435634;26;19991;-66
2024/04/14 06:35:30;;;;;;;5.90;0.75;;;14.20;94.70;;;;;;5434091;26;19995;-65
2024/04/14 06:37:56;;;;;;;8.02;1.10;;;14.20;94.40;;;;;;5438089;26;20009;-65
2024/04/14 06:40:22;;;;;;;2.97;0.98;;;14.10;94.40;;;;;;5442884;26;19995;-66
2024/04/14 06:42:47;;;;;;;7.20;1.55;;;14.10;94.40;;;;;;5434423;26;20047;-65
2024/04/14 06:45:13;;;;;;;7.30;0.95;;;14.10;94.40;;;;;;5431301;26;20003;-65
2024/04/14 06:47:39;;;;;;;3.15;0.70;;;14.10;94.30;;;;;;5427895;26;19999;-67
2024/04/14 06:50:07;;;;;;;6.00;1.20;;;14.30;94.60;;;;;;5435964;26;20339;-60
2024/04/14 06:52:32;;;;;;;11.25;1.65;;;14.10;94.10;;;;;;5438299;26;20013;-66
2024/04/14 06:54:58;;;;;;;5.78;1.13;;;14.20;94.10;;;;;;5442086;26;20025;-66
2024/04/14 06:57:23;;;;;;;8.80;1.05;;;14.20;93.80;;;;;;5439808;26;20074;-66
2024/04/14 06:59:49;;;;;;;5.78;0.98;;;14.30;93.50;;;;;;5439767;26;20777;-67
2024/04/14 07:02:15;;;;;;;4.28;0.82;;;14.30;92.80;;;;;;5427646;26;20036;-66
2024/04/14 07:04:40;;;;;;;4.78;0.88;;;14.30;92.70;;;;;;5430454;26;19999;-66
2024/04/14 07:07:06;;;;;;;7.53;1.08;;;14.30;92.70;;;;;;5433298;26;20075;-66
2024/04/14 07:09:31;;;;;;;4.97;0.70;;;14.40;93.00;;;;;;5437141;26;20404;-66
2024/04/14 07:11:57;;;;;;;7.00;0.70;;;14.40;92.60;;;;;;5440215;26;19999;-66
2024/04/14 07:14:23;;;;;;;3.22;1.40;;;14.30;92.70;;;;;;5437265;26;20010;-66
2024/04/14 07:16:48;;;;;;;4.63;0.85;;;14.40;92.90;;;;;;5434224;26;20028;-66
2024/04/14 07:19:14;;;;;;;5.53;0.85;;;14.50;93.20;;;;;;5429228;26;20727;-66
2024/04/14 07:21:40;;;;;;;4.72;0.90;;;14.50;92.70;;;;;;5443942;26;20017;-66
2024/04/14 07:24:05;;;;;;;9.57;1.60;;;14.50;92.00;;;;;;5432754;26;20014;-66
2024/04/14 07:26:32;;;;;;;5.32;0.90;;;14.50;92.00;;;;;;5434723;26;19999;-66
2024/04/14 07:28:58;;;;;;;7.18;1.02;;;14.40;91.30;;;;;;5436299;26;20003;-66
2024/04/14 07:31:24;;;;;;;7.22;0.90;;;14.40;91.60;;;;;;5424317;26;20003;-66
2024/04/14 07:34:01;;;;;;;8.63;0.95;;;14.40;91.30;;;;;;5420260;26;22472;-66
2024/04/14 07:36:27;;;;;;;4.95;0.90;;;14.30;91.10;;;;;;5423529;26;20006;-66
2024/04/14 07:38:52;;;;;;;3.75;0.70;;;14.30;91.50;;;;;;5421627;26;20043;-66
2024/04/14 07:41:21;;;;;;;3.25;0.50;;;14.40;91.80;;;;;;5425324;26;20004;-66
2024/04/14 07:43:47;;;;;;;5.47;0.70;;;14.50;91.30;;;;;;5429599;26;20520;-67
2024/04/14 07:46:13;;;;;;;5.53;1.27;;;14.40;91.20;;;;;;5431176;26;20539;-66
2024/04/14 07:48:39;;;;;;;6.60;1.30;;;14.50;91.70;;;;;;5423174;26;20075;-66
2024/04/14 07:51:05;;;;;;;4.95;0.65;;;14.50;91.60;;;;;;5427979;26;20011;-66
2024/04/14 07:53:31;;;;;;;3.15;1.10;;;14.50;91.50;;;;;;5430523;26;20464;-66
2024/04/14 07:55:56;;;;;;;2.22;0.60;;;14.60;91.60;;;;;;5436626;26;20093;-66
2024/04/14 07:58:22;;;;;;;4.22;0.85;;;14.60;91.30;;;;;;5432250;26;20511;-66
2024/04/14 08:00:48;;;;;;;3.22;0.60;;;14.60;90.70;;;;;;5443890;26;20472;-66
2024/04/14 08:03:14;;;;;;;6.60;1.10;;;14.70;91.10;;;;;;5428705;26;20003;-64
2024/04/14 08:05:40;;;;;;;3.63;0.60;;;14.80;90.60;;;;;;5436484;26;20072;-66
2024/04/14 08:08:08;;;;;;;7.00;1.05;;;14.70;90.40;;;;;;5433095;26;20006;-66
2024/04/14 08:10:34;;;;;;;6.22;0.98;;;14.70;90.70;;;;;;5429840;26;20863;-66
2024/04/14 08:12:59;;;;;;;5.22;1.00;;;14.70;91.20;;;;;;5441651;26;20456;-66
2024/04/14 08:15:25;;;;;;;3.55;0.93;;;14.80;91.30;;;;;;5430854;26;20352;-66
2024/04/14 08:17:50;;;;;;;5.00;0.80;;;14.80;91.50;;;;;;5434165;26;20002;-66
2024/04/14 08:20:16;;;;;;;8.88;0.90;;;14.80;91.30;;;;;;5432730;26;20467;-67
2024/04/14 08:22:42;;;;;;;6.28;1.00;;;14.90;91.60;;;;;;5443231;26;20010;-66
2024/04/14 08:25:07;;;;;;;7.18;0.88;;;14.90;91.20;;;;;;5429044;26;20043;-66
2024/04/14 08:27:33;;;;;;;5.60;0.80;;;14.90;91.50;;;;;;5440350;26;20739;-66
2024/04/14 08:29:59;;;;;;;3.55;0.77;;;14.70;89.90;;;;;;5434531;26;20009;-66
2024/04/14 08:32:24;;;;;;;5.68;0.98;;;14.70;89.80;;;;;;5427656;26;20076;-67
2024/04/14 08:34:50;;;;;;;4.30;0.82;;;14.50;89.50;;;;;;5436156;26;20351;-66
2024/04/14 08:37:15;;;;;;;6.50;1.27;;;14.50;89.70;;;;;;5434256;26;20010;-66
2024/04/14 08:39:41;;;;;;;5.90;1.13;;;14.50;89.10;;;;;;5440991;26;20002;-66
2024/04/14 08:42:10;;;;;;;7.22;1.00;;;14.60;89.60;;;;;;5441235;26;20013;-66
2024/04/14 08:44:37;;;;;;;4.53;0.77;;;14.60;89.40;;;;;;5432855;26;20881;-66
2024/04/14 08:47:04;;;;;;;5.43;0.90;;;14.50;89.70;;;;;;5429462;26;20350;-66
2024/04/14 08:49:30;;;;;;;5.32;0.77;;;14.70;90.10;;;;;;5431498;26;20964;-66
2024/04/14 08:51:58;;;;;;;3.40;0.70;;;14.70;89.90;;;;;;5431620;26;20018;-66
2024/04/14 08:54:24;;;;;;;5.47;1.10;;;14.80;90.20;;;;;;5423966;26;20014;-66
2024/04/14 08:56:54;;;;;;;5.00;0.70;;;14.90;90.20;;;;;;5435485;26;20002;-66
2024/04/14 08:59:21;;;;;;;7.57;0.85;;;15.00;89.70;;;;;;5433136;26;20533;-66
2024/04/14 09:01:47;;;;;;;6.22;1.02;;;15.00;89.80;;;;;;5428516;26;20006;-66
2024/04/14 09:04:15;;;;;;;4.45;0.70;;;15.10;89.40;;;;;;5429045;26;20085;-66
2024/04/14 09:06:42;;;;;;;7.50;0.88;;;15.10;89.20;;;;;;5429289;26;19995;-66
2024/04/14 09:09:08;;;;;;;5.88;1.00;;;15.00;87.80;;;;;;5431189;26;20556;-66
2024/04/14 09:11:34;;;;;;;6.15;1.25;;;15.10;89.20;;;;;;5425526;26;19995;-66
2024/04/14 09:14:00;;;;;;;6.18;1.70;;;15.10;87.80;;;;;;5435303;26;20003;-66
2024/04/14 09:16:26;;;;;;;4.90;0.73;;;15.20;86.60;;;;;;5433058;26;20444;-66
2024/04/14 09:18:52;;;;;;;5.88;0.75;;;15.10;85.20;;;;;;5435405;26;20009;-66
2024/04/14 09:21:18;;;;;;;7.35;1.02;;;15.10;85.60;;;;;;5438072;26;20695;-66
2024/04/14 09:23:43;;;;;;;6.65;1.02;;;15.00;85.20;;;;;;5430430;26;20010;-66
2024/04/14 09:26:09;;;;;;;3.70;0.68;;;15.00;85.80;;;;;;5423527;26;19999;-66
2024/04/14 09:28:35;;;;;;;6.38;0.82;;;15.20;86.50;;;;;;5434379;26;20049;-66
2024/04/14 09:31:00;;;;;;;7.70;1.00;;;15.20;86.20;;;;;;5441275;26;20339;-66
2024/04/14 09:33:26;;;;;;;4.78;0.80;;;15.20;86.20;;;;;;5431109;26;20018;-66
2024/04/14 09:35:52;;;;;;;6.22;1.13;;;15.30;85.90;;;;;;5438349;26;20316;-66
2024/04/14 09:38:18;;;;;;;4.10;0.95;;;15.30;85.90;;;;;;5429490;26;20018;-66
2024/04/14 09:40:45;;;;;;;8.52;1.20;;;15.20;85.00;;;;;;5431214;26;20110;-66
2024/04/14 09:43:11;;;;;;;3.47;0.82;;;15.20;86.00;;;;;;5427972;26;20035;-66
2024/04/14 09:45:39;;;;;;;6.32;0.82;;;15.30;86.10;;;;;;5431404;26;20011;-66
2024/04/14 09:48:06;;;;;;;6.10;1.35;;;15.10;85.60;;;;;;5429636;26;20019;-66
2024/04/14 09:50:34;;;;;;;4.20;1.23;;;15.20;86.50;;;;;;5433519;26;20067;-66
2024/04/14 09:53:01;;;;;;;3.47;0.80;;;15.40;84.90;;;;;;5429633;26;19990;-66
2024/04/14 09:55:27;;;;;;;6.83;1.00;;;15.40;86.20;;;;;;5428453;26;19994;-66
2024/04/14 09:57:53;;;;;;;7.43;1.15;;;15.40;84.80;;;;;;5423354;26;20310;-66
2024/04/14 10:00:19;;;;;;;4.85;1.27;;;15.50;85.40;;;;;;5434018;26;20576;-66
2024/04/14 10:02:52;;;;;;;6.22;1.00;;;15.50;84.40;;;;;;5433800;26;20539;-66
2024/04/14 10:05:18;;;;;;;3.80;0.98;;;15.60;84.90;;;;;;5424930;26;20027;-67
2024/04/14 10:07:44;;;;;;;2.95;0.93;;;15.70;84.00;;;;;;5419986;26;19999;-66
2024/04/14 10:10:11;;;;;;;4.40;1.05;;;15.90;84.80;;;;;;5432540;26;20052;-66
2024/04/14 10:12:37;;;;;;;10.00;0.85;;;16.10;84.80;;;;;;5428080;26;20469;-66
2024/04/14 10:15:06;;;;;;;3.00;0.55;;;16.10;85.30;;;;;;5424400;26;20054;-67
2024/04/14 10:17:35;;;;;;;9.48;1.40;;;16.30;84.60;;;;;;5434362;26;20003;-66
2024/04/14 10:20:03;;;;;;;3.10;0.90;;;16.20;83.70;;;;;;5438305;26;20018;-66
2024/04/14 10:22:34;;;;;;;5.40;1.35;;;16.40;84.20;;;;;;5439453;26;20003;-66
2024/04/14 10:25:00;;;;;;;3.85;1.05;;;16.70;85.40;;;;;;5436452;26;20046;-67
2024/04/14 10:27:29;;;;;;;5.43;1.15;;;16.70;84.80;;;;;;5427796;26;20979;-67
2024/04/14 10:29:59;;;;;;;2.55;0.60;;;16.90;82.10;;;;;;5429860;26;20623;-66
2024/04/14 10:32:25;;;;;;;6.28;0.77;;;16.90;82.60;;;;;;5434448;26;20007;-66
2024/04/14 10:34:51;;;;;;;3.13;0.70;;;16.70;79.60;;;;;;5436366;26;20023;-66
2024/04/14 10:37:27;;;;;;;5.75;1.15;;;17.00;82.30;;;;;;5433408;26;19995;-67
2024/04/14 10:39:53;;;;;;;8.00;1.08;;;17.20;81.60;;;;;;5435134;26;20003;-66
2024/04/14 10:42:20;;;;;;;3.92;1.10;;;17.60;83.50;;;;;;5431111;26;20649;-66
2024/04/14 10:44:46;;;;;;;3.28;0.77;;;17.90;81.80;;;;;;5440880;26;19999;-67
2024/04/14 10:47:19;;;;;;;8.55;1.08;;;17.90;82.10;;;;;;5440925;26;19999;-66
2024/04/14 10:49:47;;;;;;;6.30;1.00;;;18.10;80.80;;;;;;5440536;26;20005;-66
2024/04/14 10:52:14;;;;;;;;;;;18.10;79.50;;;;;;5427498;26;20672;-66
2024/04/14 10:54:41;;;;;;;5.00;0.90;;;18.30;79.80;;;;;;5438086;26;20271;-66
2024/04/14 10:57:08;;;;;;;5.05;1.13;;;18.20;79.70;;;;;;5436581;26;20232;-66
2024/04/14 10:59:34;;;;;;;6.20;1.10;;;18.60;80.70;;;;;;5430104;26;20021;-66
2024/04/14 11:02:00;;;;;;;3.42;0.70;;;18.30;77.10;;;;;;5445485;26;20031;-66
2024/04/14 11:04:27;;;;;;;3.08;0.70;;;18.40;79.40;;;;;;5436168;26;20010;-66
2024/04/14 11:06:54;;;;;;;4.90;0.73;;;18.40;78.70;;;;;;5432069;26;20014;-67
2024/04/14 11:09:21;;;;;;;5.28;1.10;;;18.40;79.00;;;;;;5438938;26;20007;-67
2024/04/14 11:11:47;;;;;;;6.37;0.83;;;18.30;78.20;;;;;;5434998;26;20009;-66
2024/04/14 11:14:17;;;;;;;5.00;1.00;;;18.20;77.70;;;;;;5424383;26;19996;-67
2024/04/14 11:16:43;;;;;;;4.03;0.88;;;17.80;77.70;;;;;;5436592;26;20023;-66
2024/04/14 11:19:09;;;;;;;7.15;0.70;;;17.70;78.00;;;;;;5435710;26;20008;-67
2024/04/14 11:21:35;;;;;;;4.70;1.10;;;17.90;79.30;;;;;;5441994;26;20466;-66
2024/04/14 11:24:01;;;;;;;5.13;1.02;;;17.90;77.70;;;;;;5433845;26;20007;-66
2024/04/14 11:26:27;;;;;;;8.38;1.30;;;18.10;76.40;;;;;;5434927;26;20011;-66
2024/04/14 11:28:53;;;;;;;9.85;1.05;;;17.90;76.20;;;;;;5436589;26;20853;-66
2024/04/14 11:31:19;;;;;;;1.83;0.65;;;18.00;76.90;;;;;;5436004;26;20075;-66
2024/04/14 11:33:52;;;;;;;5.30;0.77;;;18.00;76.10;;;;;;5438773;26;20447;-66
2024/04/14 11:36:18;;;;;;;4.63;1.05;;;17.80;75.80;;;;;;5434793;26;20447;-67
2024/04/14 11:38:47;;;;;;;4.97;1.00;;;17.70;76.50;;;;;;5439667;26;20021;-66
2024/04/14 11:41:12;;;;;;;8.48;1.25;;;17.70;76.70;;;;;;5442262;26;20021;-67
2024/04/14 11:43:38;;;;;;;2.67;0.90;;;17.70;75.90;;;;;;5437787;26;20875;-66
2024/04/14 11:46:04;;;;;;;8.07;0.88;;;17.80;78.00;;;;;;5440198;26;20002;-66
2024/04/14 11:48:29;;;;;;;5.38;1.15;;;18.20;77.20;;;;;;5429765;26;20424;-66
2024/04/14 11:50:55;;;;;;;3.88;0.93;;;18.50;75.70;;;;;;5440194;26;20027;-66
2024/04/14 11:53:21;;;;;;;3.17;0.70;;;18.30;74.20;;;;;;5437320;26;20014;-67
2024/04/14 11:55:46;;;;;;;3.58;0.70;;;18.40;72.40;;;;;;5430328;26;20479;-66
2024/04/14 11:58:13;;;;;;;5.75;0.98;;;18.50;75.40;;;;;;5430259;26;20002;-66
2024/04/14 12:00:42;;;;;;;3.83;1.13;;;18.80;75.60;;;;;;5428843;26;20007;-67
2024/04/14 12:03:08;;;;;;;4.03;0.60;;;18.90;74.60;;;;;;5438403;26;20529;-66
2024/04/14 12:05:34;;;;;;;6.95;1.10;;;18.90;72.80;;;;;;5424409;26;20043;-67
2024/04/14 12:07:59;;;;;;;4.38;0.80;;;18.90;72.60;;;;;;5433583;26;20011;-67
2024/04/14 12:10:25;;;;;;;5.22;0.88;;;18.70;71.50;;;;;;5440552;26;20352;-67
2024/04/14 12:12:51;;;;;;;4.07;0.98;;;18.80;72.00;;;;;;5424717;26;20002;-67
2024/04/14 12:15:17;;;;;;;22.23;1.55;;;19.20;72.60;;;;;;5439344;26;19996;-67
2024/04/14 12:17:42;;;;;;;4.90;0.70;;;18.90;69.90;;;;;;5437579;26;20003;-69
2024/04/14 12:20:08;;;;;;;3.58;0.80;;;19.10;71.40;;;;;;5441001;26;20037;-70
2024/04/14 12:22:34;;;;;;;5.45;0.95;;;19.30;70.70;;;;;;5434200;26;20010;-70
2024/04/14 12:25:00;;;;;;;3.38;0.85;;;19.40;72.00;;;;;;5435496;26;19995;-66
2024/04/14 12:27:26;;;;;;;4.13;0.65;;;19.70;72.60;;;;;;5430664;26;20007;-68
2024/04/14 12:29:51;;;;;;;8.15;1.00;;;19.80;69.50;;;;;;5427235;26;19995;-67
2024/04/14 12:32:17;;;;;;;8.60;1.00;;;19.70;69.80;;;;;;5436928;26;19998;-64
2024/04/14 12:34:42;;;;;;;3.17;0.77;;;19.80;71.20;;;;;;5436122;26;20003;-66
2024/04/14 12:37:08;;;;;;;5.68;1.02;;;20.00;72.80;;;;;;5429369;26;20002;-66
2024/04/14 12:39:34;;;;;;;3.08;0.95;;;20.30;72.10;;;;;;5440247;26;20002;-65